Atlanta, Georgia
Traffic Map
Current Weather Conditions
Atlanta, Georgia
Overcast Haze
Overcast
21°
Feels Like: 21°
Wind Chill: 21° Ceiling: 300
Heat Index: 21° Visibility: 0.5mi
Dew Point: 20° Wind: 0mph
Humidity: 93% Direction: ° ()
Pressure: 30.07in Gusts: 0mph
Raw Report DataKATL 240752Z 00000KT 1/2SM R09R/P6000FT BR OVC003 21/20 A3007 RMK AO2 SFC VIS 4 SLP174 CIG 002V004 TWRINC T02110200
Traffic Incident Summary
Active as of:
Severity:
Category:
InformationThere was an issue retrieving the traffic information for this location. Please try a different location or try again shortly.
Advertisements